Time;durP1;ratioP1;P1;durP2;ratioP2;P2;SDS_P1;SDS_P2;PMS_P1;PMS_P2;Temp;Humidity;BMP_temperature;BMP_pressure;BME280_temperature;BME280_humidity;BME280_pressure;Samples;Min_cycle;Max_cycle;Signal;HPM_P1;HPM_P2
2023/01/07 00:00:32;;;;;;;75.35;49.65;;;6.50;99.90;;;;;;5095557;28;20028;-70
2023/01/07 00:02:58;;;;;;;80.50;51.47;;;6.40;99.90;;;;;;5095461;28;20059;-63
2023/01/07 00:05:24;;;;;;;74.90;50.25;;;6.40;99.90;;;;;;5095374;28;20031;-64
2023/01/07 00:07:49;;;;;;;70.22;46.30;;;6.40;99.90;;;;;;5095320;28;20541;-67
2023/01/07 00:10:15;;;;;;;72.95;49.05;;;6.50;99.90;;;;;;5095381;28;20071;-62
2023/01/07 00:12:41;;;;;;;62.88;43.85;;;6.50;99.90;;;;;;5095437;28;20034;-64
2023/01/07 00:15:07;;;;;;;61.55;40.17;;;6.40;99.90;;;;;;5095180;28;20113;-65
2023/01/07 00:17:32;;;;;;;60.78;40.22;;;6.50;99.90;;;;;;5095206;28;20103;-66
2023/01/07 00:19:58;;;;;;;60.63;40.55;;;6.40;99.90;;;;;;5077036;28;20062;-65
2023/01/07 00:22:24;;;;;;;63.53;41.70;;;6.40;99.90;;;;;;5094626;28;20047;-63
2023/01/07 00:24:49;;;;;;;69.35;44.80;;;6.40;99.90;;;;;;5095299;28;20023;-70
2023/01/07 00:27:15;;;;;;;74.90;49.40;;;6.50;99.90;;;;;;5095000;28;20481;-63
2023/01/07 00:29:41;;;;;;;61.17;40.45;;;6.40;99.90;;;;;;5094727;28;20020;-62
2023/01/07 00:32:06;;;;;;;76.30;49.42;;;6.30;99.90;;;;;;5095027;28;20410;-69
2023/01/07 00:34:32;;;;;;;54.63;38.30;;;6.20;99.90;;;;;;5094668;28;20065;-70
2023/01/07 00:37:48;;;;;;;81.70;53.03;;;6.20;99.90;;;;;;5094079;28;20479;-66
2023/01/07 00:39:43;;;;;;;73.82;47.10;;;6.20;99.90;;;;;;5094660;28;20016;-63
2023/01/07 00:44:53;;;;;;;;;;;6.10;99.90;;;;;;5095035;28;20041;-68
2023/01/07 00:47:19;;;;;;;91.35;55.13;;;6.00;99.90;;;;;;5094622;28;19999;-70
2023/01/07 00:49:45;;;;;;;111.47;67.70;;;6.00;99.90;;;;;;5094542;28;20024;-67
2023/01/07 00:52:11;;;;;;;79.90;50.88;;;5.80;99.90;;;;;;5094516;28;20462;-64
2023/01/07 00:54:37;;;;;;;86.47;54.10;;;5.70;99.90;;;;;;5094648;28;20103;-65
2023/01/07 00:57:02;;;;;;;75.10;48.22;;;5.80;99.90;;;;;;5076208;28;20024;-64
2023/01/07 00:59:28;;;;;;;68.90;46.50;;;5.90;99.90;;;;;;5094172;28;20410;-62
2023/01/07 01:01:54;;;;;;;68.53;46.05;;;5.90;99.90;;;;;;5094458;28;20077;-68
2023/01/07 01:04:19;;;;;;;79.93;48.83;;;5.90;99.90;;;;;;5094455;28;20016;-68
2023/01/07 01:06:45;;;;;;;67.82;45.42;;;6.00;99.90;;;;;;5094632;28;20036;-68
2023/01/07 01:09:11;;;;;;;61.00;41.22;;;5.90;99.90;;;;;;5094340;28;20031;-68
2023/01/07 01:11:36;;;;;;;69.80;46.22;;;5.90;99.90;;;;;;5094298;28;20024;-66
2023/01/07 01:14:02;;;;;;;66.20;44.67;;;5.90;99.90;;;;;;5076061;28;20099;-69
2023/01/07 01:16:28;;;;;;;71.75;47.20;;;5.90;99.90;;;;;;5094172;28;20084;-60
2023/01/07 01:18:53;;;;;;;55.35;38.45;;;5.90;99.90;;;;;;5094092;28;20016;-61
2023/01/07 01:21:19;;;;;;;55.75;35.70;;;5.90;99.90;;;;;;5093892;28;20023;-63
2023/01/07 01:23:45;;;;;;;66.65;42.30;;;5.80;99.90;;;;;;5094172;28;20429;-66
2023/01/07 01:26:13;;;;;;;92.45;60.50;;;5.80;99.90;;;;;;5094016;28;20023;-64
2023/01/07 01:28:40;;;;;;;105.32;67.05;;;5.70;99.90;;;;;;5093989;28;20020;-62
2023/01/07 01:31:07;;;;;;;79.35;51.95;;;5.40;99.90;;;;;;5094020;28;20105;-61
2023/01/07 01:33:33;;;;;;;79.43;51.83;;;5.40;99.90;;;;;;5093805;28;20024;-67
2023/01/07 01:36:03;;;;;;;92.50;57.08;;;5.50;99.90;;;;;;5093699;28;20024;-67
2023/01/07 01:38:29;;;;;;;67.47;46.55;;;5.60;99.90;;;;;;5093988;28;20028;-63
2023/01/07 01:40:54;;;;;;;68.43;45.55;;;5.60;99.90;;;;;;5093918;28;20066;-64
2023/01/07 01:43:36;;;;;;;70.65;47.10;;;5.60;99.90;;;;;;5093827;28;20024;-66
2023/01/07 01:46:24;;;;;;;71.70;47.72;;;5.60;99.90;;;;;;5093735;28;20066;-63
2023/01/07 01:48:59;;;;;;;60.83;41.47;;;5.60;99.90;;;;;;5077631;28;20067;-60
2023/01/07 01:51:27;;;;;;;53.05;36.88;;;5.60;99.90;;;;;;5098036;28;20028;-69
2023/01/07 01:53:55;;;;;;;69.93;48.03;;;5.60;99.90;;;;;;5097914;28;20016;-65
2023/01/07 01:56:28;;;;;;;70.82;50.05;;;5.60;99.90;;;;;;5097797;28;20052;-69
2023/01/07 01:58:58;;;;;;;90.35;58.45;;;5.50;99.90;;;;;;5097590;28;20054;-66
2023/01/07 02:01:24;;;;;;;68.68;46.85;;;5.40;99.90;;;;;;5079599;28;20024;-62
2023/01/07 02:03:50;;;;;;;66.38;44.47;;;5.30;99.90;;;;;;5097664;28;20458;-66
2023/01/07 02:06:25;;;;;;;52.58;37.55;;;5.40;99.90;;;;;;5097732;28;20047;-61
2023/01/07 02:08:51;;;;;;;48.40;33.83;;;5.50;99.90;;;;;;5098007;28;20020;-65
2023/01/07 02:11:48;;;;;;;55.88;38.95;;;5.50;99.90;;;;;;5098188;28;20433;-64
2023/01/07 02:14:36;;;;;;;56.20;37.97;;;5.50;99.90;;;;;;5097591;28;20052;-63
2023/01/07 02:17:17;;;;;;;45.28;30.52;;;5.40;99.90;;;;;;5097304;28;20028;-64
2023/01/07 02:20:24;;;;;;;42.28;29.33;;;5.40;99.90;;;;;;5097430;28;20069;-62
2023/01/07 02:23:07;;;;;;;50.42;33.72;;;5.40;99.90;;;;;;4995911;28;20435;-64
2023/01/07 02:25:47;;;;;;;39.43;27.13;;;5.40;99.90;;;;;;5092652;28;20186;-64
2023/01/07 02:28:46;;;;;;;39.78;28.45;;;5.30;99.90;;;;;;5097263;28;20055;-66
2023/01/07 02:31:50;;;;;;;51.67;34.13;;;5.40;99.90;;;;;;5097209;28;20055;-66
2023/01/07 02:34:31;;;;;;;49.67;31.45;;;5.40;99.90;;;;;;5007738;28;20042;-67
2023/01/07 02:37:15;;;;;;;38.88;26.85;;;5.30;99.90;;;;;;5097011;28;20066;-62
2023/01/07 02:39:44;;;;;;;38.90;27.50;;;5.30;99.90;;;;;;5097169;28;20099;-60
2023/01/07 02:42:39;;;;;;;40.00;27.75;;;5.20;99.90;;;;;;5097159;28;20104;-69
2023/01/07 02:45:22;;;;;;;41.50;27.70;;;5.20;99.90;;;;;;5096830;28;20099;-69
2023/01/07 02:48:03;;;;;;;34.05;24.15;;;5.30;99.90;;;;;;5096830;28;20370;-67
2023/01/07 02:50:29;;;;;;;32.97;23.33;;;5.30;99.90;;;;;;5097195;28;20426;-64
2023/01/07 02:52:54;;;;;;;40.53;27.13;;;5.20;99.90;;;;;;5096735;28;20100;-57
2023/01/07 02:55:38;;;;;;;36.53;24.75;;;5.30;99.90;;;;;;5096938;28;20016;-61
2023/01/07 02:58:35;;;;;;;33.40;23.80;;;5.20;99.90;;;;;;5096387;28;20044;-66
2023/01/07 03:01:15;;;;;;;39.75;27.85;;;5.10;99.90;;;;;;5096088;28;20589;-71
2023/01/07 03:04:18;;;;;;;38.75;25.48;;;5.10;99.90;;;;;;5096630;28;20095;-60
2023/01/07 03:07:18;;;;;;;52.70;35.53;;;5.00;99.90;;;;;;5082860;28;20040;-66
2023/01/07 03:09:49;;;;;;;44.85;28.65;;;4.90;99.90;;;;;;5095886;28;20036;-63
2023/01/07 03:12:23;;;;;;;41.28;27.88;;;4.90;99.90;;;;;;5096332;28;20039;-62
2023/01/07 03:15:01;;;;;;;36.42;24.98;;;5.00;99.90;;;;;;5096491;28;20612;-66
2023/01/07 03:17:45;;;;;;;37.67;24.00;;;5.00;99.90;;;;;;5096213;28;20119;-62
2023/01/07 03:20:12;;;;;;;41.58;27.33;;;5.00;99.90;;;;;;5096295;28;20016;-66
2023/01/07 03:22:40;;;;;;;41.83;27.92;;;5.00;99.90;;;;;;5096389;28;20024;-66
2023/01/07 03:25:06;;;;;;;33.38;22.60;;;4.90;99.90;;;;;;5096295;28;20467;-66
2023/01/07 03:27:35;;;;;;;31.88;21.83;;;4.90;99.90;;;;;;5096023;28;20031;-67
2023/01/07 03:30:05;;;;;;;32.92;21.35;;;4.90;99.90;;;;;;5077685;28;20028;-67
2023/01/07 03:33:00;;;;;;;49.20;33.85;;;5.00;99.90;;;;;;5096012;28;20013;-66
2023/01/07 03:35:29;;;;;;;43.13;29.48;;;4.90;99.90;;;;;;5093293;28;20489;-61
2023/01/07 03:37:57;;;;;;;44.10;28.50;;;4.70;99.90;;;;;;5095815;28;20032;-70
2023/01/07 03:40:23;;;;;;;50.20;32.55;;;4.70;99.90;;;;;;5095670;28;20024;-64
2023/01/07 03:42:49;;;;;;;51.35;32.97;;;4.70;99.90;;;;;;5095881;28;20020;-61
2023/01/07 03:45:18;;;;;;;49.58;33.80;;;4.70;99.90;;;;;;5095678;28;20382;-62
2023/01/07 03:47:47;;;;;;;46.28;30.15;;;4.70;99.90;;;;;;5095749;28;20541;-70
2023/01/07 03:50:13;;;;;;;42.53;29.35;;;4.70;99.90;;;;;;5095933;28;20016;-70
2023/01/07 03:52:39;;;;;;;39.60;27.58;;;4.80;99.90;;;;;;5095589;28;20095;-64
2023/01/07 03:55:05;;;;;;;39.45;26.75;;;4.80;99.90;;;;;;5077545;28;20058;-70
2023/01/07 03:57:32;;;;;;;32.40;22.95;;;4.80;99.90;;;;;;5095527;28;20024;-72
2023/01/07 03:59:58;;;;;;;28.95;20.73;;;4.80;99.90;;;;;;5095416;28;20062;-66
2023/01/07 04:02:24;;;;;;;33.03;21.42;;;4.80;99.90;;;;;;5095353;28;20058;-62
2023/01/07 04:04:50;;;;;;;31.88;21.55;;;4.80;99.90;;;;;;5095500;28;20024;-65
2023/01/07 04:07:16;;;;;;;27.23;18.77;;;4.80;99.90;;;;;;5095183;28;20020;-66
2023/01/07 04:09:41;;;;;;;31.13;18.77;;;4.80;99.90;;;;;;5077139;28;20028;-63
2023/01/07 04:12:07;;;;;;;26.17;18.33;;;4.80;99.90;;;;;;5094740;28;20482;-64
2023/01/07 04:14:33;;;;;;;27.88;18.02;;;4.80;99.90;;;;;;5095218;28;20023;-64
2023/01/07 04:16:58;;;;;;;21.85;15.57;;;4.80;99.90;;;;;;5077077;28;20028;-69
2023/01/07 04:19:24;;;;;;;24.02;15.65;;;4.80;99.90;;;;;;5077116;28;20425;-66
2023/01/07 04:21:50;;;;;;;23.85;15.85;;;4.70;99.90;;;;;;5095180;28;20020;-71
2023/01/07 04:24:15;;;;;;;23.08;15.40;;;4.70;99.90;;;;;;5095112;28;20071;-69
2023/01/07 04:26:41;;;;;;;24.27;16.27;;;4.70;99.90;;;;;;5094998;28;20462;-70
2023/01/07 04:29:07;;;;;;;20.58;15.05;;;4.70;99.90;;;;;;5094945;28;20111;-69
2023/01/07 04:31:33;;;;;;;20.95;14.25;;;4.60;99.90;;;;;;5094760;28;20024;-63
2023/01/07 04:33:59;;;;;;;20.23;13.73;;;4.60;99.90;;;;;;5094926;28;20047;-70
2023/01/07 04:36:24;;;;;;;17.58;12.68;;;4.60;99.90;;;;;;5094834;28;20031;-69
2023/01/07 04:38:50;;;;;;;17.00;12.57;;;4.60;99.90;;;;;;5076737;28;20081;-61
2023/01/07 04:41:16;;;;;;;18.63;13.38;;;4.60;99.90;;;;;;5094722;28;20028;-69
2023/01/07 04:43:41;;;;;;;29.15;18.65;;;4.60;99.90;;;;;;5094406;28;20028;-61
2023/01/07 04:46:07;;;;;;;17.80;13.63;;;4.60;99.90;;;;;;5094606;28;20028;-64
2023/01/07 04:48:33;;;;;;;18.23;12.98;;;4.50;99.90;;;;;;5076375;28;20024;-62
2023/01/07 04:50:58;;;;;;;20.40;14.20;;;4.50;99.90;;;;;;5094562;28;20103;-66
2023/01/07 04:53:24;;;;;;;30.85;21.13;;;4.50;99.90;;;;;;5094482;28;20024;-63
2023/01/07 04:55:52;;;;;;;28.45;18.77;;;4.50;99.90;;;;;;5094639;28;20024;-66
2023/01/07 04:58:17;;;;;;;28.85;20.15;;;4.30;99.90;;;;;;5094025;28;20055;-67
2023/01/07 05:00:44;;;;;;;27.38;19.17;;;4.20;99.90;;;;;;5094377;28;20028;-63
2023/01/07 05:03:10;;;;;;;30.23;18.80;;;4.20;99.90;;;;;;5094354;28;20493;-69
2023/01/07 05:05:36;;;;;;;26.73;17.50;;;4.20;99.90;;;;;;5094019;28;20020;-63
2023/01/07 05:08:01;;;;;;;27.67;16.27;;;4.30;99.90;;;;;;5094261;28;20078;-70
2023/01/07 05:10:27;;;;;;;25.20;16.92;;;4.30;99.90;;;;;;5094186;28;20055;-68
2023/01/07 05:12:53;;;;;;;28.02;18.13;;;4.30;99.90;;;;;;5093892;28;20039;-68
2023/01/07 05:15:18;;;;;;;46.83;25.73;;;4.40;99.90;;;;;;5094334;28;20470;-67
2023/01/07 05:17:44;;;;;;;37.65;23.15;;;4.40;99.90;;;;;;5076061;28;20029;-66
2023/01/07 05:20:10;;;;;;;31.63;19.92;;;4.20;99.90;;;;;;5093939;28;20069;-64
2023/01/07 05:22:36;;;;;;;34.35;20.67;;;4.30;99.90;;;;;;5094053;28;20024;-62
2023/01/07 05:25:02;;;;;;;33.67;20.50;;;4.30;99.90;;;;;;5094180;28;20039;-63
2023/01/07 05:27:28;;;;;;;43.72;26.25;;;4.30;99.90;;;;;;5093918;28;20028;-69
2023/01/07 05:29:54;;;;;;;48.05;27.55;;;4.30;99.90;;;;;;5094036;28;20035;-72
2023/01/07 05:32:19;;;;;;;36.80;23.30;;;4.20;99.90;;;;;;5093942;28;20099;-61
2023/01/07 05:34:45;;;;;;;34.20;21.08;;;4.10;99.90;;;;;;5094078;28;20021;-64
2023/01/07 05:37:11;;;;;;;32.17;21.38;;;4.10;99.90;;;;;;5093741;28;20496;-61
2023/01/07 05:39:36;;;;;;;34.08;21.02;;;4.20;99.90;;;;;;5094020;28;20089;-65
2023/01/07 05:42:02;;;;;;;27.60;18.45;;;4.20;99.90;;;;;;5075632;28;20028;-65
2023/01/07 05:44:28;;;;;;;28.27;18.17;;;4.30;99.90;;;;;;5093612;28;20020;-67
2023/01/07 05:46:53;;;;;;;31.40;20.83;;;4.30;99.90;;;;;;5093819;28;20070;-67
2023/01/07 05:49:19;;;;;;;24.58;16.50;;;4.20;99.90;;;;;;5093677;28;20028;-66
2023/01/07 05:51:45;;;;;;;25.50;16.80;;;4.10;99.90;;;;;;5093607;28;20024;-61
2023/01/07 05:54:10;;;;;;;32.78;20.77;;;4.20;99.90;;;;;;5093886;28;20035;-69
2023/01/07 05:56:36;;;;;;;32.33;21.90;;;4.20;99.90;;;;;;5093610;28;20105;-62
2023/01/07 05:59:02;;;;;;;25.38;17.75;;;4.10;99.90;;;;;;5093281;28;20043;-67
2023/01/07 06:01:27;;;;;;;21.92;15.68;;;4.00;99.90;;;;;;5093672;28;20028;-69
2023/01/07 06:03:53;;;;;;;26.05;16.73;;;4.00;99.90;;;;;;5093543;28;20490;-65
2023/01/07 06:06:19;;;;;;;27.42;16.95;;;4.00;99.90;;;;;;5093498;28;20021;-64
2023/01/07 06:08:44;;;;;;;24.85;16.73;;;4.00;99.90;;;;;;5093573;28;20016;-65
2023/01/07 06:11:10;;;;;;;20.42;14.88;;;4.00;99.90;;;;;;5093363;28;20020;-69
2023/01/07 06:13:36;;;;;;;26.92;16.05;;;4.10;99.90;;;;;;5093612;28;20096;-62
2023/01/07 06:16:04;;;;;;;24.70;15.55;;;4.10;99.90;;;;;;5093250;28;20020;-63
2023/01/07 06:18:30;;;;;;;20.88;14.90;;;4.10;99.90;;;;;;5093511;28;20061;-63
2023/01/07 06:20:56;;;;;;;21.90;15.73;;;4.20;99.90;;;;;;5093710;28;20016;-62
2023/01/07 06:23:22;;;;;;;27.33;19.00;;;4.20;99.90;;;;;;5093613;28;20016;-68
2023/01/07 06:25:48;;;;;;;37.53;22.63;;;4.20;99.90;;;;;;5093259;28;20470;-67
2023/01/07 06:28:13;;;;;;;34.10;23.15;;;4.20;99.90;;;;;;5093657;28;20028;-66
2023/01/07 06:30:39;;;;;;;27.70;18.38;;;4.10;99.90;;;;;;5093296;28;20024;-68
2023/01/07 06:33:05;;;;;;;32.50;20.15;;;4.10;99.90;;;;;;5093271;28;20021;-68
2023/01/07 06:35:32;;;;;;;42.17;25.02;;;4.10;99.90;;;;;;5095910;28;20016;-62
2023/01/07 06:38:00;;;;;;;40.60;26.17;;;4.10;99.90;;;;;;5096914;28;20035;-62
2023/01/07 06:40:26;;;;;;;47.55;30.48;;;4.20;99.90;;;;;;5097147;28;20031;-66
2023/01/07 06:42:52;;;;;;;70.55;40.85;;;4.20;99.90;;;;;;5097108;28;20016;-65
2023/01/07 06:45:18;;;;;;;64.13;35.80;;;4.20;99.90;;;;;;5096894;28;20135;-65
2023/01/07 06:47:44;;;;;;;44.90;29.38;;;4.10;99.90;;;;;;5096887;28;20102;-65
2023/01/07 06:50:10;;;;;;;42.17;28.92;;;4.00;99.90;;;;;;5097067;28;20023;-65
2023/01/07 06:52:36;;;;;;;45.17;28.70;;;4.10;99.90;;;;;;5096854;28;20012;-64
2023/01/07 06:55:02;;;;;;;50.15;30.42;;;4.10;99.90;;;;;;5096475;28;20059;-61
2023/01/07 06:57:28;;;;;;;59.15;35.80;;;4.20;99.90;;;;;;5096385;28;20052;-64
2023/01/07 06:59:53;;;;;;;48.03;30.83;;;4.20;99.90;;;;;;5096809;28;20024;-67
2023/01/07 07:02:25;;;;;;;42.25;27.67;;;4.20;99.90;;;;;;5096631;28;20031;-63
2023/01/07 07:04:51;;;;;;;41.70;26.40;;;4.20;99.90;;;;;;5096596;28;20028;-66
2023/01/07 07:07:17;;;;;;;49.30;31.50;;;4.20;99.90;;;;;;5096652;28;20473;-62
2023/01/07 07:09:43;;;;;;;79.72;42.28;;;4.30;99.90;;;;;;5096081;28;20016;-66
2023/01/07 07:12:09;;;;;;;102.78;54.97;;;4.20;99.90;;;;;;5096579;28;20024;-62
2023/01/07 07:14:35;;;;;;;90.75;55.00;;;4.30;99.90;;;;;;5096543;28;20031;-62
2023/01/07 07:17:01;;;;;;;65.35;41.13;;;4.30;99.90;;;;;;5096107;28;20081;-63
2023/01/07 07:19:26;;;;;;;66.55;42.65;;;4.30;99.90;;;;;;5096206;28;20509;-71
2023/01/07 07:21:52;;;;;;;82.68;47.90;;;4.20;99.90;;;;;;5096081;28;20024;-64
2023/01/07 07:24:18;;;;;;;59.60;40.47;;;4.30;99.90;;;;;;5096147;28;20020;-72
2023/01/07 07:26:43;;;;;;;53.55;35.25;;;4.40;99.90;;;;;;5096270;28;20478;-68
2023/01/07 07:29:10;;;;;;;52.08;33.88;;;4.40;99.90;;;;;;5096228;28;20103;-66
2023/01/07 07:31:36;;;;;;;51.65;35.08;;;4.50;99.90;;;;;;5096006;28;20020;-63
2023/01/07 07:34:03;;;;;;;59.90;38.75;;;4.60;99.90;;;;;;5096224;28;20356;-63
2023/01/07 07:36:29;;;;;;;57.80;36.83;;;4.50;99.90;;;;;;5095873;28;20402;-66
2023/01/07 07:38:54;;;;;;;48.80;31.90;;;4.50;99.90;;;;;;5095833;28;20020;-70
2023/01/07 07:41:20;;;;;;;89.88;49.95;;;4.50;99.90;;;;;;5095902;28;20024;-68
2023/01/07 07:43:46;;;;;;;115.75;66.97;;;4.50;99.90;;;;;;5095761;28;20516;-67
2023/01/07 07:46:12;;;;;;;152.18;90.60;;;4.60;99.90;;;;;;5094553;28;20025;-67
2023/01/07 07:48:38;;;;;;;160.43;100.70;;;4.60;99.90;;;;;;5095693;28;20039;-66
2023/01/07 07:51:04;;;;;;;152.43;98.63;;;4.80;99.90;;;;;;5095555;28;20099;-64
2023/01/07 07:53:29;;;;;;;127.15;84.50;;;5.00;99.90;;;;;;5095826;28;20501;-68
2023/01/07 07:55:55;;;;;;;137.82;84.53;;;5.40;99.90;;;;;;5095483;28;20046;-64
2023/01/07 07:58:21;;;;;;;141.57;92.43;;;5.80;99.90;;;;;;5077180;28;20093;-63
2023/01/07 08:00:47;;;;;;;158.95;103.05;;;7.10;99.90;;;;;;5095699;28;20081;-63
2023/01/07 08:03:12;;;;;;;242.15;158.73;;;8.60;99.80;;;;;;5095470;28;20024;-64
2023/01/07 08:05:41;;;;;;;218.00;145.40;;;9.40;94.90;;;;;;5095913;28;20080;-69
2023/01/07 08:08:10;;;;;;;228.73;156.27;;;10.30;91.60;;;;;;5095453;28;20028;-68
2023/01/07 08:10:37;;;;;;;239.68;156.45;;;10.60;88.90;;;;;;5095575;28;20052;-71
2023/01/07 08:13:04;;;;;;;233.05;150.00;;;11.50;82.10;;;;;;5095406;28;20020;-67
2023/01/07 08:15:30;;;;;;;360.70;231.52;;;12.20;78.80;;;;;;5095268;28;20364;-61
2023/01/07 08:18:03;;;;;;;373.30;246.88;;;11.70;73.90;;;;;;5095185;28;20025;-62
2023/01/07 08:20:29;;;;;;;307.60;205.50;;;11.40;77.10;;;;;;5094956;28;20032;-61
2023/01/07 08:23:01;;;;;;;271.02;187.93;;;11.50;77.30;;;;;;5095046;28;20099;-67
2023/01/07 08:25:28;;;;;;;252.00;168.05;;;12.00;77.40;;;;;;5094870;28;20047;-66
2023/01/07 08:27:54;;;;;;;257.23;162.27;;;12.40;75.20;;;;;;5076929;28;20390;-66
2023/01/07 08:30:20;;;;;;;243.55;156.45;;;12.30;74.00;;;;;;5094949;28;20020;-64
2023/01/07 08:32:46;;;;;;;261.73;173.43;;;11.40;76.10;;;;;;5094989;28;20390;-65
2023/01/07 08:35:12;;;;;;;416.88;273.65;;;11.00;80.50;;;;;;5094742;28;20111;-65
2023/01/07 08:37:38;;;;;;;425.45;285.55;;;10.40;84.20;;;;;;5094651;28;20107;-64
2023/01/07 08:40:05;;;;;;;370.55;256.48;;;9.80;91.10;;;;;;5094741;28;20486;-63
2023/01/07 08:42:30;;;;;;;325.20;224.02;;;9.40;94.70;;;;;;5094730;28;20109;-67
2023/01/07 08:44:56;;;;;;;327.23;220.57;;;9.30;96.00;;;;;;5094737;28;20024;-67
2023/01/07 08:47:22;;;;;;;296.55;204.57;;;9.00;98.90;;;;;;5094674;28;20073;-66
2023/01/07 08:49:47;;;;;;;302.65;211.75;;;8.90;99.90;;;;;;5094421;28;20039;-64
2023/01/07 08:52:13;;;;;;;356.40;244.55;;;9.10;99.90;;;;;;5094637;28;20077;-62
2023/01/07 08:54:39;;;;;;;284.15;203.90;;;9.10;99.90;;;;;;5094648;28;20024;-64
2023/01/07 08:57:04;;;;;;;250.02;179.77;;;9.00;99.90;;;;;;5093938;28;20488;-68
2023/01/07 08:59:30;;;;;;;222.15;152.55;;;9.10;99.90;;;;;;5094322;28;20055;-69
2023/01/07 09:01:56;;;;;;;187.20;131.43;;;9.20;99.90;;;;;;5094480;28;20020;-67
2023/01/07 09:04:22;;;;;;;188.73;133.93;;;10.20;99.90;;;;;;5094216;28;20363;-67
2023/01/07 09:06:48;;;;;;;197.95;138.55;;;11.20;97.00;;;;;;5094442;28;20582;-71
2023/01/07 09:09:15;;;;;;;175.50;130.10;;;11.50;94.00;;;;;;5094260;28;20024;-65
2023/01/07 09:11:41;;;;;;;162.20;122.22;;;11.20;93.40;;;;;;5094086;28;20405;-68
2023/01/07 09:14:07;;;;;;;174.05;130.25;;;11.10;94.20;;;;;;5094219;28;20020;-66
2023/01/07 09:16:33;;;;;;;144.30;115.82;;;11.10;93.30;;;;;;5094109;28;20432;-62
2023/01/07 09:18:58;;;;;;;140.30;108.57;;;11.20;94.50;;;;;;5093939;28;20016;-65
2023/01/07 09:21:24;;;;;;;127.47;103.70;;;11.40;94.10;;;;;;5094088;28;20031;-69
2023/01/07 09:23:50;;;;;;;124.80;101.45;;;11.50;92.70;;;;;;5093971;28;20046;-64
2023/01/07 09:26:16;;;;;;;123.65;100.00;;;11.50;92.60;;;;;;5093976;28;20096;-68
2023/01/07 09:28:42;;;;;;;126.82;99.30;;;11.80;92.40;;;;;;5094005;28;20539;-63
2023/01/07 09:31:08;;;;;;;109.65;89.57;;;12.10;90.10;;;;;;5094138;28;20024;-70
2023/01/07 09:33:34;;;;;;;105.80;87.57;;;12.40;91.00;;;;;;5094125;28;20016;-62
2023/01/07 09:35:59;;;;;;;102.50;87.28;;;12.70;90.20;;;;;;5093802;28;20016;-64
2023/01/07 09:38:25;;;;;;;97.68;83.63;;;13.10;86.90;;;;;;5093789;28;20495;-65
2023/01/07 09:40:52;;;;;;;99.15;79.40;;;13.60;83.80;;;;;;5093733;28;20016;-67
2023/01/07 09:43:30;;;;;;;94.25;77.68;;;13.90;83.60;;;;;;5093730;28;20132;-64
2023/01/07 09:46:00;;;;;;;104.65;83.97;;;13.70;76.80;;;;;;5093961;28;20016;-70
2023/01/07 09:48:28;;;;;;;94.63;77.40;;;13.80;76.40;;;;;;5093727;28;20024;-64
2023/01/07 09:50:59;;;;;;;88.65;73.30;;;14.00;76.50;;;;;;5093849;28;20050;-68
2023/01/07 09:53:35;;;;;;;101.53;82.43;;;14.30;75.90;;;;;;5093880;28;20071;-68
2023/01/07 09:56:05;;;;;;;98.03;79.15;;;14.50;73.80;;;;;;5093696;28;20027;-67
2023/01/07 09:58:31;;;;;;;75.47;63.15;;;14.70;73.90;;;;;;5075529;28;20053;-65
2023/01/07 10:01:21;;;;;;;58.20;48.72;;;14.90;69.90;;;;;;5093641;28;20020;-66
2023/01/07 10:04:17;;;;;;;49.80;43.65;;;14.80;69.00;;;;;;5093762;28;20377;-65
2023/01/07 10:06:58;;;;;;;41.08;36.60;;;15.00;69.60;;;;;;5093803;28;20023;-69
2023/01/07 10:09:44;;;;;;;36.03;32.08;;;15.50;67.90;;;;;;5094271;28;20020;-67
2023/01/07 10:12:30;;;;;;;30.85;27.55;;;15.80;66.60;;;;;;5097706;28;20016;-63
2023/01/07 10:15:08;;;;;;;32.97;26.63;;;16.00;62.80;;;;;;5079375;28;20047;-65
2023/01/07 10:18:04;;;;;;;28.63;25.15;;;16.30;60.40;;;;;;5097425;28;20028;-67
2023/01/07 10:20:45;;;;;;;28.25;24.15;;;16.30;59.40;;;;;;5097544;28;20020;-67
2023/01/07 10:23:28;;;;;;;26.95;24.00;;;16.20;58.70;;;;;;5097418;28;20016;-67
2023/01/07 10:25:56;;;;;;;29.25;24.33;;;16.20;59.30;;;;;;5079419;28;20024;-69
2023/01/07 10:28:39;;;;;;;32.08;28.23;;;16.20;56.40;;;;;;5097365;28;20028;-68
2023/01/07 10:31:14;;;;;;;29.00;24.77;;;15.80;60.00;;;;;;5097081;28;20382;-69
2023/01/07 10:33:39;;;;;;;25.02;22.25;;;16.30;59.30;;;;;;5097176;28;20016;-65
2023/01/07 10:36:17;;;;;;;23.15;19.35;;;16.60;57.50;;;;;;5097093;28;20034;-60
2023/01/07 10:38:52;;;;;;;26.27;23.33;;;17.00;57.00;;;;;;5097183;28;20035;-66
2023/01/07 10:41:32;;;;;;;22.50;20.08;;;17.20;56.00;;;;;;5097157;28;20394;-70
2023/01/07 10:44:25;;;;;;;31.83;26.40;;;17.30;55.00;;;;;;5096860;28;20024;-70
2023/01/07 10:47:02;;;;;;;27.30;23.33;;;17.30;53.70;;;;;;5096782;28;20062;-65
2023/01/07 10:50:00;;;;;;;22.05;19.73;;;16.80;54.40;;;;;;5096983;28;20024;-68
2023/01/07 10:52:47;;;;;;;19.67;17.55;;;17.00;54.20;;;;;;5041321;28;20062;-66
2023/01/07 10:55:22;;;;;;;21.98;18.27;;;17.20;53.50;;;;;;5096946;28;20449;-65
2023/01/07 10:57:48;;;;;;;18.90;16.73;;;17.40;53.90;;;;;;5096411;28;20058;-65
2023/01/07 11:00:15;;;;;;;19.92;17.92;;;17.50;53.20;;;;;;5096466;28;20102;-61
2023/01/07 11:02:55;;;;;;;19.40;17.38;;;17.70;52.90;;;;;;5078562;28;20028;-63
2023/01/07 11:05:24;;;;;;;20.00;17.38;;;18.00;51.80;;;;;;5096444;28;20532;-69
2023/01/07 11:07:57;;;;;;;18.52;16.10;;;18.10;51.20;;;;;;5096554;28;20027;-62
2023/01/07 11:10:27;;;;;;;18.17;16.25;;;18.20;51.50;;;;;;5096678;28;20016;-65
2023/01/07 11:12:57;;;;;;;19.52;17.25;;;18.30;51.30;;;;;;5096474;28;20031;-63
2023/01/07 11:15:27;;;;;;;19.55;17.65;;;18.20;50.10;;;;;;5096411;28;20024;-67
2023/01/07 11:18:01;;;;;;;19.67;17.65;;;18.10;50.20;;;;;;5096373;28;20118;-67
2023/01/07 11:20:49;;;;;;;21.58;17.33;;;18.00;51.30;;;;;;5096290;28;20035;-68
2023/01/07 11:23:26;;;;;;;20.33;18.23;;;18.00;50.00;;;;;;5096126;28;20398;-67
2023/01/07 11:25:53;;;;;;;21.65;19.35;;;18.10;50.70;;;;;;5096218;28;20027;-62
2023/01/07 11:28:32;;;;;;;22.33;19.55;;;18.20;49.60;;;;;;5096052;28;20051;-62
2023/01/07 11:30:59;;;;;;;19.50;17.45;;;17.90;49.90;;;;;;5096184;28;20498;-65
2023/01/07 11:33:38;;;;;;;23.15;20.65;;;18.00;50.60;;;;;;5096172;28;20023;-63
2023/01/07 11:36:05;;;;;;;21.08;18.52;;;18.30;50.40;;;;;;5096000;28;20031;-65
2023/01/07 11:38:35;;;;;;;21.77;19.58;;;18.50;50.00;;;;;;5078385;28;20054;-68
2023/01/07 11:41:02;;;;;;;24.05;21.65;;;18.70;49.50;;;;;;5095772;28;20063;-69
2023/01/07 11:43:38;;;;;;;25.10;21.23;;;18.70;50.10;;;;;;5095792;28;20099;-65
2023/01/07 11:46:14;;;;;;;23.58;21.17;;;18.60;49.10;;;;;;5095789;28;20157;-67
2023/01/07 11:48:52;;;;;;;25.00;22.38;;;18.70;49.90;;;;;;5095764;28;20047;-69
2023/01/07 11:51:20;;;;;;;27.33;24.38;;;18.80;50.10;;;;;;5095865;28;20020;-63
2023/01/07 11:53:50;;;;;;;26.52;23.92;;;18.80;49.80;;;;;;5095639;28;20111;-67
2023/01/07 11:56:18;;;;;;;26.17;23.48;;;18.90;50.00;;;;;;5095662;28;20028;-70
2023/01/07 11:58:47;;;;;;;26.88;24.10;;;19.20;49.20;;;;;;5095263;28;20062;-66
2023/01/07 12:01:16;;;;;;;28.13;25.30;;;19.40;49.20;;;;;;5095541;28;20099;-65
2023/01/07 12:03:43;;;;;;;27.23;24.48;;;19.60;48.30;;;;;;5077454;28;20051;-69
2023/01/07 12:06:18;;;;;;;25.20;22.58;;;19.70;47.40;;;;;;5077509;28;20500;-70
2023/01/07 12:08:59;;;;;;;26.00;23.35;;;19.80;48.20;;;;;;5095520;28;20081;-67
2023/01/07 12:11:38;;;;;;;29.20;26.20;;;20.00;47.20;;;;;;5095494;28;20020;-61
2023/01/07 12:14:25;;;;;;;29.10;26.10;;;20.10;46.70;;;;;;5095136;28;20013;-66
2023/01/07 12:16:52;;;;;;;27.13;24.42;;;20.10;47.30;;;;;;5095261;28;20027;-70
2023/01/07 12:19:31;;;;;;;26.35;23.52;;;20.20;46.90;;;;;;5095082;28;20482;-69
2023/01/07 12:22:51;;;;;;;25.30;22.63;;;20.30;46.60;;;;;;5095268;28;20024;-62
2023/01/07 12:25:36;;;;;;;24.17;21.67;;;20.20;45.70;;;;;;4993630;28;20030;-63
2023/01/07 12:28:12;;;;;;;24.05;21.45;;;19.70;45.90;;;;;;5087016;28;20028;-65
2023/01/07 12:30:57;;;;;;;33.70;28.20;;;19.70;47.10;;;;;;5094805;28;20016;-59
2023/01/07 12:33:59;;;;;;;22.73;20.35;;;19.80;46.30;;;;;;5094356;28;20100;-63
2023/01/07 12:36:52;;;;;;;23.50;21.10;;;20.00;46.10;;;;;;5095198;28;20095;-64
2023/01/07 12:39:43;;;;;;;23.63;21.13;;;20.10;45.70;;;;;;5094974;28;20060;-64
2023/01/07 12:42:12;;;;;;;23.50;21.02;;;20.30;45.80;;;;;;5094553;28;20124;-71
2023/01/07 12:44:47;;;;;;;21.05;18.92;;;20.40;44.70;;;;;;5076645;28;20078;-69
2023/01/07 12:47:19;;;;;;;23.38;20.08;;;20.30;44.60;;;;;;5094691;28;20020;-68
2023/01/07 12:49:57;;;;;;;20.38;18.27;;;20.40;44.60;;;;;;5094652;28;20607;-63